sensor_id;sensor_type;location;lat;lon;timestamp;pressure;altitude;pressure_sealevel;temperature;humidity
9822;BME280;4950;46.042;14.472;2022-08-19T00:00:34;97429.50;;;21.57;85.60
9822;BME280;4950;46.042;14.472;2022-08-19T00:03:01;97449.84;;;21.57;85.69
9822;BME280;4950;46.042;14.472;2022-08-19T00:05:28;97448.66;;;21.37;86.02
9822;BME280;4950;46.042;14.472;2022-08-19T00:07:54;97447.88;;;21.42;86.55
9822;BME280;4950;46.042;14.472;2022-08-19T00:10:23;97431.31;;;21.46;85.98
9822;BME280;4950;46.042;14.472;2022-08-19T00:12:50;97418.38;;;21.50;85.85
9822;BME280;4950;46.042;14.472;2022-08-19T00:15:18;97407.56;;;21.52;86.07
9822;BME280;4950;46.042;14.472;2022-08-19T00:17:47;97401.75;;;21.49;85.79
9822;BME280;4950;46.042;14.472;2022-08-19T00:20:17;97417.34;;;21.51;85.79
9822;BME280;4950;46.042;14.472;2022-08-19T00:22:45;97412.31;;;21.49;85.99
9822;BME280;4950;46.042;14.472;2022-08-19T00:25:13;97400.16;;;21.54;86.08
9822;BME280;4950;46.042;14.472;2022-08-19T00:27:41;97412.63;;;21.58;85.58
9822;BME280;4950;46.042;14.472;2022-08-19T00:30:09;97415.28;;;21.63;85.55
9822;BME280;4950;46.042;14.472;2022-08-19T00:32:36;97403.66;;;21.69;85.33
9822;BME280;4950;46.042;14.472;2022-08-19T00:35:05;97412.69;;;21.74;85.02
9822;BME280;4950;46.042;14.472;2022-08-19T00:37:32;97413.78;;;21.83;84.69
9822;BME280;4950;46.042;14.472;2022-08-19T00:40:00;97399.53;;;21.84;84.41
9822;BME280;4950;46.042;14.472;2022-08-19T00:42:27;97386.31;;;21.84;84.29
9822;BME280;4950;46.042;14.472;2022-08-19T00:44:56;97374.41;;;21.86;83.94
9822;BME280;4950;46.042;14.472;2022-08-19T00:47:23;97377.06;;;21.86;84.16
9822;BME280;4950;46.042;14.472;2022-08-19T00:49:51;97387.13;;;21.89;84.19
9822;BME280;4950;46.042;14.472;2022-08-19T00:52:22;97406.41;;;21.90;83.45
9822;BME280;4950;46.042;14.472;2022-08-19T00:54:50;97397.34;;;21.71;84.73
9822;BME280;4950;46.042;14.472;2022-08-19T00:57:20;97398.09;;;21.61;85.02
9822;BME280;4950;46.042;14.472;2022-08-19T00:59:51;97391.75;;;21.57;85.03
9822;BME280;4950;46.042;14.472;2022-08-19T01:02:20;97381.13;;;21.46;85.55
9822;BME280;4950;46.042;14.472;2022-08-19T01:04:46;97371.09;;;21.48;85.74
9822;BME280;4950;46.042;14.472;2022-08-19T01:07:13;97362.91;;;21.50;85.77
9822;BME280;4950;46.042;14.472;2022-08-19T01:09:40;97341.56;;;21.57;85.74
9822;BME280;4950;46.042;14.472;2022-08-19T01:12:07;97319.63;;;21.61;85.63
9822;BME280;4950;46.042;14.472;2022-08-19T01:14:35;97306.19;;;21.68;85.31
9822;BME280;4950;46.042;14.472;2022-08-19T01:17:03;97305.44;;;21.78;84.32
9822;BME280;4950;46.042;14.472;2022-08-19T01:19:35;97316.53;;;21.85;83.83
9822;BME280;4950;46.042;14.472;2022-08-19T01:22:08;97314.41;;;21.77;84.48
9822;BME280;4950;46.042;14.472;2022-08-19T01:24:39;97310.19;;;21.86;83.80
9822;BME280;4950;46.042;14.472;2022-08-19T01:27:07;97314.88;;;21.63;84.41
9822;BME280;4950;46.042;14.472;2022-08-19T01:29:37;97315.63;;;21.48;85.13
9822;BME280;4950;46.042;14.472;2022-08-19T01:32:04;97326.75;;;21.51;85.11
9822;BME280;4950;46.042;14.472;2022-08-19T01:34:31;97344.69;;;21.48;85.70
9822;BME280;4950;46.042;14.472;2022-08-19T01:36:59;97345.13;;;21.35;86.17
9822;BME280;4950;46.042;14.472;2022-08-19T01:39:32;97348.31;;;21.37;86.18
9822;BME280;4950;46.042;14.472;2022-08-19T01:42:00;97349.03;;;21.27;86.54
9822;BME280;4950;46.042;14.472;2022-08-19T01:44:28;97346.34;;;21.17;87.04
9822;BME280;4950;46.042;14.472;2022-08-19T01:46:55;97326.81;;;21.18;86.60
9822;BME280;4950;46.042;14.472;2022-08-19T01:49:24;97322.03;;;21.10;87.37
9822;BME280;4950;46.042;14.472;2022-08-19T01:51:52;97322.81;;;21.10;87.32
9822;BME280;4950;46.042;14.472;2022-08-19T01:54:21;97322.84;;;21.16;85.98
9822;BME280;4950;46.042;14.472;2022-08-19T01:56:49;97325.16;;;21.07;86.58
9822;BME280;4950;46.042;14.472;2022-08-19T01:59:20;97343.09;;;21.05;86.66
9822;BME280;4950;46.042;14.472;2022-08-19T02:01:48;97362.59;;;20.99;86.70
9822;BME280;4950;46.042;14.472;2022-08-19T02:04:15;97384.31;;;20.74;87.33
9822;BME280;4950;46.042;14.472;2022-08-19T02:06:42;97439.41;;;20.70;88.31
9822;BME280;4950;46.042;14.472;2022-08-19T02:09:09;97527.63;;;20.79;88.73
9822;BME280;4950;46.042;14.472;2022-08-19T02:11:37;97629.50;;;20.80;89.58
9822;BME280;4950;46.042;14.472;2022-08-19T02:14:06;97676.69;;;20.77;90.66
9822;BME280;4950;46.042;14.472;2022-08-19T02:16:35;97707.56;;;20.76;86.98
9822;BME280;4950;46.042;14.472;2022-08-19T02:19:03;97669.50;;;20.72;86.45
9822;BME280;4950;46.042;14.472;2022-08-19T02:21:30;97618.75;;;20.65;87.43
9822;BME280;4950;46.042;14.472;2022-08-19T02:23:57;97599.19;;;20.61;87.03
9822;BME280;4950;46.042;14.472;2022-08-19T02:26:24;97579.13;;;20.60;86.22
9822;BME280;4950;46.042;14.472;2022-08-19T02:28:52;97570.22;;;20.66;86.25
9822;BME280;4950;46.042;14.472;2022-08-19T02:31:22;97570.06;;;20.73;85.97
9822;BME280;4950;46.042;14.472;2022-08-19T02:33:50;97536.47;;;20.68;85.05
9822;BME280;4950;46.042;14.472;2022-08-19T02:36:17;97537.72;;;20.60;84.03
9822;BME280;4950;46.042;14.472;2022-08-19T02:38:44;97525.47;;;20.54;83.82
9822;BME280;4950;46.042;14.472;2022-08-19T02:41:13;97543.84;;;20.44;84.21
9822;BME280;4950;46.042;14.472;2022-08-19T02:43:40;97591.97;;;20.34;84.26
9822;BME280;4950;46.042;14.472;2022-08-19T02:46:15;97628.53;;;20.25;83.60
9822;BME280;4950;46.042;14.472;2022-08-19T02:48:43;97633.34;;;20.11;83.32
9822;BME280;4950;46.042;14.472;2022-08-19T02:51:17;97652.81;;;19.93;82.96
9822;BME280;4950;46.042;14.472;2022-08-19T02:53:44;97641.81;;;19.97;83.40
9822;BME280;4950;46.042;14.472;2022-08-19T02:56:11;97575.19;;;20.01;83.84
9822;BME280;4950;46.042;14.472;2022-08-19T02:58:37;97618.53;;;20.10;84.52
9822;BME280;4950;46.042;14.472;2022-08-19T03:01:04;97689.94;;;20.09;84.09
9822;BME280;4950;46.042;14.472;2022-08-19T03:03:31;97682.91;;;19.81;85.45
9822;BME280;4950;46.042;14.472;2022-08-19T03:06:09;97630.69;;;19.78;85.94
9822;BME280;4950;46.042;14.472;2022-08-19T03:08:38;97625.28;;;19.84;86.36
9822;BME280;4950;46.042;14.472;2022-08-19T03:11:05;97605.94;;;19.96;86.96
9822;BME280;4950;46.042;14.472;2022-08-19T03:13:32;97592.09;;;20.05;87.46
9822;BME280;4950;46.042;14.472;2022-08-19T03:15:59;97584.75;;;20.07;87.34
9822;BME280;4950;46.042;14.472;2022-08-19T03:18:25;97575.63;;;20.15;87.03
9822;BME280;4950;46.042;14.472;2022-08-19T03:20:52;97539.06;;;20.19;86.82
9822;BME280;4950;46.042;14.472;2022-08-19T03:23:20;97545.19;;;20.24;86.00
9822;BME280;4950;46.042;14.472;2022-08-19T03:25:50;97554.44;;;20.27;85.79
9822;BME280;4950;46.042;14.472;2022-08-19T03:28:17;97531.84;;;20.31;85.71
9822;BME280;4950;46.042;14.472;2022-08-19T03:30:55;97535.03;;;20.33;86.02
9822;BME280;4950;46.042;14.472;2022-08-19T03:33:22;97521.88;;;20.38;85.83
9822;BME280;4950;46.042;14.472;2022-08-19T03:36:00;97508.78;;;20.43;85.83
9822;BME280;4950;46.042;14.472;2022-08-19T03:38:26;97490.31;;;20.43;86.33
9822;BME280;4950;46.042;14.472;2022-08-19T03:40:54;97491.09;;;20.44;86.20
9822;BME280;4950;46.042;14.472;2022-08-19T03:43:21;97488.22;;;20.45;85.97
9822;BME280;4950;46.042;14.472;2022-08-19T03:45:47;97480.91;;;20.52;85.70
9822;BME280;4950;46.042;14.472;2022-08-19T03:48:14;97466.06;;;20.46;85.57
9822;BME280;4950;46.042;14.472;2022-08-19T03:50:42;97453.16;;;20.45;85.79
9822;BME280;4950;46.042;14.472;2022-08-19T03:53:08;97449.47;;;20.46;85.89
9822;BME280;4950;46.042;14.472;2022-08-19T03:55:39;97456.34;;;20.47;86.10
9822;BME280;4950;46.042;14.472;2022-08-19T03:58:07;97468.16;;;20.44;85.96
9822;BME280;4950;46.042;14.472;2022-08-19T04:00:33;97483.41;;;20.37;86.20
9822;BME280;4950;46.042;14.472;2022-08-19T04:03:01;97484.66;;;20.35;85.83
9822;BME280;4950;46.042;14.472;2022-08-19T04:05:28;97485.22;;;20.37;86.52
9822;BME280;4950;46.042;14.472;2022-08-19T04:07:54;97509.47;;;20.11;87.65
9822;BME280;4950;46.042;14.472;2022-08-19T04:10:24;97502.34;;;20.12;88.07
9822;BME280;4950;46.042;14.472;2022-08-19T04:12:50;97529.84;;;19.99;88.63
9822;BME280;4950;46.042;14.472;2022-08-19T04:15:18;97516.66;;;19.99;88.73
9822;BME280;4950;46.042;14.472;2022-08-19T04:17:45;97480.75;;;19.93;88.28
9822;BME280;4950;46.042;14.472;2022-08-19T04:20:12;97474.31;;;19.84;89.33
9822;BME280;4950;46.042;14.472;2022-08-19T04:22:38;97484.50;;;19.97;89.72
9822;BME280;4950;46.042;14.472;2022-08-19T04:25:05;97489.84;;;20.02;89.37
9822;BME280;4950;46.042;14.472;2022-08-19T04:27:32;97511.81;;;20.13;89.20
9822;BME280;4950;46.042;14.472;2022-08-19T04:29:59;97530.63;;;20.00;89.68
9822;BME280;4950;46.042;14.472;2022-08-19T04:32:27;97527.31;;;19.70;91.01
9822;BME280;4950;46.042;14.472;2022-08-19T04:34:53;97532.66;;;19.59;91.60
9822;BME280;4950;46.042;14.472;2022-08-19T04:37:24;97544.06;;;19.64;91.08
9822;BME280;4950;46.042;14.472;2022-08-19T04:39:52;97552.63;;;19.54;91.41
9822;BME280;4950;46.042;14.472;2022-08-19T04:42:36;97556.63;;;19.57;91.72
9822;BME280;4950;46.042;14.472;2022-08-19T04:45:07;97557.25;;;19.64;91.70
9822;BME280;4950;46.042;14.472;2022-08-19T04:47:36;97564.19;;;19.70;91.27
9822;BME280;4950;46.042;14.472;2022-08-19T04:50:03;97558.84;;;19.65;91.44
9822;BME280;4950;46.042;14.472;2022-08-19T04:52:31;97574.16;;;19.68;91.58
9822;BME280;4950;46.042;14.472;2022-08-19T04:54:58;97576.78;;;19.68;91.33
9822;BME280;4950;46.042;14.472;2022-08-19T04:57:25;97615.84;;;19.71;91.04
9822;BME280;4950;46.042;14.472;2022-08-19T04:59:53;97669.22;;;19.67;91.51
9822;BME280;4950;46.042;14.472;2022-08-19T05:02:20;97692.59;;;19.63;91.87
9822;BME280;4950;46.042;14.472;2022-08-19T05:04:55;97669.38;;;19.60;91.62
9822;BME280;4950;46.042;14.472;2022-08-19T05:07:22;97645.81;;;19.53;91.79
9822;BME280;4950;46.042;14.472;2022-08-19T05:09:48;97644.22;;;19.52;91.91
9822;BME280;4950;46.042;14.472;2022-08-19T05:12:15;97656.59;;;19.52;92.28
9822;BME280;4950;46.042;14.472;2022-08-19T05:14:42;97657.88;;;19.49;92.33
9822;BME280;4950;46.042;14.472;2022-08-19T05:17:10;97659.22;;;19.52;92.93
9822;BME280;4950;46.042;14.472;2022-08-19T05:19:37;97651.31;;;19.52;93.54
9822;BME280;4950;46.042;14.472;2022-08-19T05:22:22;97647.66;;;19.53;93.72
9822;BME280;4950;46.042;14.472;2022-08-19T05:25:08;97615.19;;;19.64;93.49
9822;BME280;4950;46.042;14.472;2022-08-19T05:27:35;97590.22;;;19.67;93.48
9822;BME280;4950;46.042;14.472;2022-08-19T05:30:03;97610.00;;;19.69;93.43
9822;BME280;4950;46.042;14.472;2022-08-19T05:32:30;97613.06;;;19.78;93.21
9822;BME280;4950;46.042;14.472;2022-08-19T05:34:57;97599.22;;;19.88;92.89
9822;BME280;4950;46.042;14.472;2022-08-19T05:37:25;97583.03;;;19.96;92.40
9822;BME280;4950;46.042;14.472;2022-08-19T05:39:53;97586.84;;;20.05;92.22
9822;BME280;4950;46.042;14.472;2022-08-19T05:42:21;97576.94;;;20.12;92.13
9822;BME280;4950;46.042;14.472;2022-08-19T05:44:49;97565.97;;;20.21;91.78
9822;BME280;4950;46.042;14.472;2022-08-19T05:47:16;97549.91;;;20.22;91.09
9822;BME280;4950;46.042;14.472;2022-08-19T05:49:44;97547.81;;;20.24;90.48
9822;BME280;4950;46.042;14.472;2022-08-19T05:52:13;97543.09;;;20.26;90.46
9822;BME280;4950;46.042;14.472;2022-08-19T05:54:43;97548.44;;;20.31;90.38
9822;BME280;4950;46.042;14.472;2022-08-19T05:57:13;97539.25;;;20.34;90.25
9822;BME280;4950;46.042;14.472;2022-08-19T05:59:39;97530.59;;;20.39;90.28
9822;BME280;4950;46.042;14.472;2022-08-19T06:02:07;97533.06;;;20.45;90.45
9822;BME280;4950;46.042;14.472;2022-08-19T06:04:34;97519.88;;;20.45;90.77
9822;BME280;4950;46.042;14.472;2022-08-19T06:07:00;97502.03;;;20.52;90.47
9822;BME280;4950;46.042;14.472;2022-08-19T06:09:28;97486.22;;;20.58;90.11
9822;BME280;4950;46.042;14.472;2022-08-19T06:11:58;97488.06;;;20.57;89.90
9822;BME280;4950;46.042;14.472;2022-08-19T06:14:27;97482.31;;;20.60;89.92
9822;BME280;4950;46.042;14.472;2022-08-19T06:16:55;97480.50;;;20.61;88.99
9822;BME280;4950;46.042;14.472;2022-08-19T06:19:22;97480.03;;;20.69;88.56
9822;BME280;4950;46.042;14.472;2022-08-19T06:21:51;97466.41;;;20.77;88.97
9822;BME280;4950;46.042;14.472;2022-08-19T06:24:21;97469.09;;;20.82;88.55
9822;BME280;4950;46.042;14.472;2022-08-19T06:26:50;97477.59;;;20.89;88.25
9822;BME280;4950;46.042;14.472;2022-08-19T06:29:21;97475.59;;;21.02;87.70
9822;BME280;4950;46.042;14.472;2022-08-19T06:31:51;97486.41;;;21.00;87.02
9822;BME280;4950;46.042;14.472;2022-08-19T06:34:19;97471.50;;;20.89;87.75
9822;BME280;4950;46.042;14.472;2022-08-19T06:36:47;97462.03;;;20.88;88.15
9822;BME280;4950;46.042;14.472;2022-08-19T06:39:16;97468.63;;;20.90;89.05
9822;BME280;4950;46.042;14.472;2022-08-19T06:41:46;97480.09;;;21.01;88.32
9822;BME280;4950;46.042;14.472;2022-08-19T06:44:13;97462.88;;;20.99;87.67
9822;BME280;4950;46.042;14.472;2022-08-19T06:46:42;97446.50;;;20.97;87.13
9822;BME280;4950;46.042;14.472;2022-08-19T06:49:08;97443.94;;;21.02;87.01
9822;BME280;4950;46.042;14.472;2022-08-19T06:51:39;97449.75;;;21.04;86.92
9822;BME280;4950;46.042;14.472;2022-08-19T06:54:06;97447.22;;;21.19;86.38
9822;BME280;4950;46.042;14.472;2022-08-19T06:56:33;97456.78;;;21.30;84.37
9822;BME280;4950;46.042;14.472;2022-08-19T06:59:00;97451.47;;;21.25;85.50
9822;BME280;4950;46.042;14.472;2022-08-19T07:01:28;97437.94;;;21.17;86.13
9822;BME280;4950;46.042;14.472;2022-08-19T07:03:55;97423.47;;;21.19;86.16
9822;BME280;4950;46.042;14.472;2022-08-19T07:06:22;97447.28;;;21.29;86.55
9822;BME280;4950;46.042;14.472;2022-08-19T07:08:49;97465.72;;;21.24;85.48
9822;BME280;4950;46.042;14.472;2022-08-19T07:11:18;97454.31;;;21.14;85.91
9822;BME280;4950;46.042;14.472;2022-08-19T07:13:46;97424.72;;;21.12;85.80
9822;BME280;4950;46.042;14.472;2022-08-19T07:16:16;97412.03;;;21.08;86.65
9822;BME280;4950;46.042;14.472;2022-08-19T07:18:44;97405.19;;;21.13;87.09
9822;BME280;4950;46.042;14.472;2022-08-19T07:21:15;97412.19;;;21.34;86.98
9822;BME280;4950;46.042;14.472;2022-08-19T07:23:42;97416.78;;;21.49;86.06
9822;BME280;4950;46.042;14.472;2022-08-19T07:26:12;97420.47;;;21.48;85.50
9822;BME280;4950;46.042;14.472;2022-08-19T07:28:39;97403.63;;;21.54;85.26
9822;BME280;4950;46.042;14.472;2022-08-19T07:31:06;97431.06;;;21.53;85.24
9822;BME280;4950;46.042;14.472;2022-08-19T07:33:34;97416.84;;;21.54;85.39
9822;BME280;4950;46.042;14.472;2022-08-19T07:36:03;97417.38;;;21.56;85.47
9822;BME280;4950;46.042;14.472;2022-08-19T07:38:32;97406.28;;;21.59;84.28
9822;BME280;4950;46.042;14.472;2022-08-19T07:40:59;97415.81;;;21.65;84.49
9822;BME280;4950;46.042;14.472;2022-08-19T07:43:26;97424.03;;;21.69;84.46
9822;BME280;4950;46.042;14.472;2022-08-19T07:45:53;97420.06;;;21.72;84.37
9822;BME280;4950;46.042;14.472;2022-08-19T07:48:21;97423.28;;;21.79;83.78
9822;BME280;4950;46.042;14.472;2022-08-19T07:50:50;97419.88;;;21.83;84.01
9822;BME280;4950;46.042;14.472;2022-08-19T07:53:17;97409.84;;;21.91;84.21
9822;BME280;4950;46.042;14.472;2022-08-19T07:55:46;97405.38;;;21.96;83.51
9822;BME280;4950;46.042;14.472;2022-08-19T07:58:15;97404.56;;;22.01;82.94
9822;BME280;4950;46.042;14.472;2022-08-19T08:00:43;97411.25;;;22.14;82.76
9822;BME280;4950;46.042;14.472;2022-08-19T08:03:11;97417.09;;;22.26;81.94
9822;BME280;4950;46.042;14.472;2022-08-19T08:05:38;97420.31;;;22.33;80.67
9822;BME280;4950;46.042;14.472;2022-08-19T08:08:24;97424.00;;;22.37;81.13
9822;BME280;4950;46.042;14.472;2022-08-19T08:11:10;97427.19;;;22.39;79.91
9822;BME280;4950;46.042;14.472;2022-08-19T08:13:37;97434.06;;;22.45;79.63
9822;BME280;4950;46.042;14.472;2022-08-19T08:16:07;97429.34;;;22.42;79.34
9822;BME280;4950;46.042;14.472;2022-08-19T08:18:34;97429.06;;;22.44;79.57
9822;BME280;4950;46.042;14.472;2022-08-19T08:21:07;97433.03;;;22.52;79.14
9822;BME280;4950;46.042;14.472;2022-08-19T08:23:34;97448.13;;;22.51;78.05
9822;BME280;4950;46.042;14.472;2022-08-19T08:26:01;97458.66;;;22.31;78.48
9822;BME280;4950;46.042;14.472;2022-08-19T08:28:31;97432.41;;;22.24;79.35
9822;BME280;4950;46.042;14.472;2022-08-19T08:30:58;97407.03;;;22.23;80.29
9822;BME280;4950;46.042;14.472;2022-08-19T08:33:28;97439.06;;;22.32;80.57
9822;BME280;4950;46.042;14.472;2022-08-19T08:35:55;97456.69;;;22.11;79.84
9822;BME280;4950;46.042;14.472;2022-08-19T08:38:22;97394.31;;;22.09;80.48
9822;BME280;4950;46.042;14.472;2022-08-19T08:40:51;97418.38;;;22.18;81.19
9822;BME280;4950;46.042;14.472;2022-08-19T08:43:24;97456.28;;;22.29;80.17
9822;BME280;4950;46.042;14.472;2022-08-19T08:45:59;97441.66;;;22.16;79.29
9822;BME280;4950;46.042;14.472;2022-08-19T08:48:35;97429.50;;;22.15;79.14
9822;BME280;4950;46.042;14.472;2022-08-19T08:51:05;97439.28;;;22.20;79.49
9822;BME280;4950;46.042;14.472;2022-08-19T08:53:34;97431.88;;;22.22;79.24
9822;BME280;4950;46.042;14.472;2022-08-19T08:56:03;97428.19;;;22.23;79.73
9822;BME280;4950;46.042;14.472;2022-08-19T08:58:36;97435.66;;;22.31;79.88
9822;BME280;4950;46.042;14.472;2022-08-19T09:01:11;97435.66;;;22.41;79.64
9822;BME280;4950;46.042;14.472;2022-08-19T09:03:40;97446.53;;;22.50;79.17
9822;BME280;4950;46.042;14.472;2022-08-19T09:06:13;97444.69;;;22.61;78.32
9822;BME280;4950;46.042;14.472;2022-08-19T09:08:47;97449.75;;;22.67;78.17
9822;BME280;4950;46.042;14.472;2022-08-19T09:11:19;97452.63;;;22.71;77.33
9822;BME280;4950;46.042;14.472;2022-08-19T09:14:02;97458.47;;;22.68;77.91
9822;BME280;4950;46.042;14.472;2022-08-19T09:16:35;97443.91;;;22.81;77.11
9822;BME280;4950;46.042;14.472;2022-08-19T09:19:04;97442.88;;;22.87;76.56
9822;BME280;4950;46.042;14.472;2022-08-19T09:21:31;97446.56;;;22.96;76.82
9822;BME280;4950;46.042;14.472;2022-08-19T09:23:57;97442.34;;;23.05;76.74
9822;BME280;4950;46.042;14.472;2022-08-19T09:26:25;97438.13;;;23.15;75.41
9822;BME280;4950;46.042;14.472;2022-08-19T09:28:52;97429.13;;;23.26;74.28
9822;BME280;4950;46.042;14.472;2022-08-19T09:31:23;97429.63;;;23.33;73.90
9822;BME280;4950;46.042;14.472;2022-08-19T09:33:52;97444.97;;;23.46;70.75
9822;BME280;4950;46.042;14.472;2022-08-19T09:36:24;97439.63;;;23.57;68.21
9822;BME280;4950;46.042;14.472;2022-08-19T09:38:51;97454.25;;;23.39;69.92
9822;BME280;4950;46.042;14.472;2022-08-19T09:41:21;97454.50;;;23.42;70.74
9822;BME280;4950;46.042;14.472;2022-08-19T09:43:50;97452.09;;;23.51;68.63
9822;BME280;4950;46.042;14.472;2022-08-19T09:46:21;97451.03;;;23.52;68.79
9822;BME280;4950;46.042;14.472;2022-08-19T09:48:49;97448.34;;;23.62;68.73
9822;BME280;4950;46.042;14.472;2022-08-19T09:51:20;97445.72;;;23.68;67.95
9822;BME280;4950;46.042;14.472;2022-08-19T09:53:48;97427.94;;;23.73;69.09
9822;BME280;4950;46.042;14.472;2022-08-19T09:56:18;97427.66;;;23.75;68.70
9822;BME280;4950;46.042;14.472;2022-08-19T09:58:45;97430.81;;;23.87;67.80
9822;BME280;4950;46.042;14.472;2022-08-19T10:01:16;97424.63;;;24.02;68.02
9822;BME280;4950;46.042;14.472;2022-08-19T10:03:47;97417.47;;;24.08;67.00
9822;BME280;4950;46.042;14.472;2022-08-19T10:06:14;97415.03;;;24.16;67.86
9822;BME280;4950;46.042;14.472;2022-08-19T10:08:41;97418.72;;;24.26;66.85
9822;BME280;4950;46.042;14.472;2022-08-19T10:11:08;97419.75;;;24.24;67.08
9822;BME280;4950;46.042;14.472;2022-08-19T10:13:36;97424.25;;;24.29;66.71
9822;BME280;4950;46.042;14.472;2022-08-19T10:16:05;97410.94;;;24.34;67.41
9822;BME280;4950;46.042;14.472;2022-08-19T10:18:33;97397.09;;;24.42;66.83
9822;BME280;4950;46.042;14.472;2022-08-19T10:21:06;97391.75;;;24.53;67.41
9822;BME280;4950;46.042;14.472;2022-08-19T10:23:36;97390.56;;;24.69;64.61
9822;BME280;4950;46.042;14.472;2022-08-19T10:26:05;97390.50;;;24.74;65.56
9822;BME280;4950;46.042;14.472;2022-08-19T10:28:33;97389.59;;;24.89;66.71
9822;BME280;4950;46.042;14.472;2022-08-19T10:31:06;97392.72;;;24.96;67.07
9822;BME280;4950;46.042;14.472;2022-08-19T10:33:33;97388.56;;;25.14;65.42
9822;BME280;4950;46.042;14.472;2022-08-19T10:36:01;97386.31;;;25.32;64.78
9822;BME280;4950;46.042;14.472;2022-08-19T10:38:28;97383.28;;;25.38;64.69
9822;BME280;4950;46.042;14.472;2022-08-19T10:40:55;97385.28;;;25.52;62.32
9822;BME280;4950;46.042;14.472;2022-08-19T10:43:23;97382.22;;;25.64;62.35
9822;BME280;4950;46.042;14.472;2022-08-19T10:45:54;97382.00;;;25.60;62.21
9822;BME280;4950;46.042;14.472;2022-08-19T10:48:24;97363.88;;;25.62;62.40
9822;BME280;4950;46.042;14.472;2022-08-19T10:50:51;97378.00;;;25.63;63.27
9822;BME280;4950;46.042;14.472;2022-08-19T10:53:43;97370.94;;;25.72;62.72
9822;BME280;4950;46.042;14.472;2022-08-19T10:56:10;97359.47;;;25.76;61.34
9822;BME280;4950;46.042;14.472;2022-08-19T10:58:55;97362.28;;;25.66;60.45
9822;BME280;4950;46.042;14.472;2022-08-19T11:01:23;97365.47;;;25.63;61.19
9822;BME280;4950;46.042;14.472;2022-08-19T11:03:50;97356.94;;;25.66;61.36
9822;BME280;4950;46.042;14.472;2022-08-19T11:06:16;97356.38;;;25.69;61.86
9822;BME280;4950;46.042;14.472;2022-08-19T11:08:44;97349.97;;;25.70;62.20
9822;BME280;4950;46.042;14.472;2022-08-19T11:11:11;97348.34;;;25.74;60.72
9822;BME280;4950;46.042;14.472;2022-08-19T11:13:40;97366.06;;;25.79;59.95
9822;BME280;4950;46.042;14.472;2022-08-19T11:16:12;97377.50;;;25.79;60.03
9822;BME280;4950;46.042;14.472;2022-08-19T11:18:41;97360.09;;;25.92;60.50
9822;BME280;4950;46.042;14.472;2022-08-19T11:21:12;97387.56;;;26.07;60.58
9822;BME280;4950;46.042;14.472;2022-08-19T11:23:40;97396.91;;;26.04;59.84
9822;BME280;4950;46.042;14.472;2022-08-19T11:26:06;97388.19;;;25.98;59.58
9822;BME280;4950;46.042;14.472;2022-08-19T11:28:33;97377.28;;;26.00;60.15
9822;BME280;4950;46.042;14.472;2022-08-19T11:31:00;97388.66;;;26.06;59.46
9822;BME280;4950;46.042;14.472;2022-08-19T11:33:30;97385.13;;;26.10;58.77
9822;BME280;4950;46.042;14.472;2022-08-19T11:35:58;97385.34;;;26.14;59.37
9822;BME280;4950;46.042;14.472;2022-08-19T11:38:26;97371.31;;;26.27;59.47
9822;BME280;4950;46.042;14.472;2022-08-19T11:40:55;97356.91;;;26.47;59.17
9822;BME280;4950;46.042;14.472;2022-08-19T11:43:21;97358.84;;;26.61;59.35
9822;BME280;4950;46.042;14.472;2022-08-19T11:45:48;97354.47;;;26.84;56.24
9822;BME280;4950;46.042;14.472;2022-08-19T11:48:15;97352.63;;;27.12;56.77
9822;BME280;4950;46.042;14.472;2022-08-19T11:50:43;97356.56;;;27.14;55.79
9822;BME280;4950;46.042;14.472;2022-08-19T11:53:10;97362.75;;;27.29;54.79
9822;BME280;4950;46.042;14.472;2022-08-19T11:55:37;97365.00;;;27.35;54.55
9822;BME280;4950;46.042;14.472;2022-08-19T11:58:05;97378.63;;;27.34;54.56
9822;BME280;4950;46.042;14.472;2022-08-19T12:00:33;97391.19;;;27.33;53.62
9822;BME280;4950;46.042;14.472;2022-08-19T12:03:00;97398.97;;;27.30;53.25
9822;BME280;4950;46.042;14.472;2022-08-19T12:05:27;97393.78;;;27.06;53.38
9822;BME280;4950;46.042;14.472;2022-08-19T12:07:55;97393.66;;;26.97;54.35
9822;BME280;4950;46.042;14.472;2022-08-19T12:10:23;97392.75;;;26.88;54.47
9822;BME280;4950;46.042;14.472;2022-08-19T12:12:50;97392.75;;;26.88;54.67
9822;BME280;4950;46.042;14.472;2022-08-19T12:15:17;97402.25;;;26.94;55.11
9822;BME280;4950;46.042;14.472;2022-08-19T12:17:44;97393.97;;;26.95;54.49
9822;BME280;4950;46.042;14.472;2022-08-19T12:20:11;97383.69;;;27.03;53.56
9822;BME280;4950;46.042;14.472;2022-08-19T12:22:41;97374.41;;;27.00;53.95
9822;BME280;4950;46.042;14.472;2022-08-19T12:25:11;97367.22;;;27.01;53.61
9822;BME280;4950;46.042;14.472;2022-08-19T12:27:38;97378.19;;;26.99;54.13
9822;BME280;4950;46.042;14.472;2022-08-19T12:30:08;97418.66;;;27.01;53.18
9822;BME280;4950;46.042;14.472;2022-08-19T12:32:35;97496.91;;;26.29;55.12
9822;BME280;4950;46.042;14.472;2022-08-19T12:35:02;97481.75;;;24.89;61.84
9822;BME280;4950;46.042;14.472;2022-08-19T12:37:29;97488.06;;;23.88;70.32
9822;BME280;4950;46.042;14.472;2022-08-19T12:39:57;97482.28;;;23.60;74.54
9822;BME280;4950;46.042;14.472;2022-08-19T12:42:25;97489.16;;;23.66;74.66
9822;BME280;4950;46.042;14.472;2022-08-19T12:44:52;97481.75;;;23.58;77.23
9822;BME280;4950;46.042;14.472;2022-08-19T12:47:18;97464.53;;;23.66;78.69
9822;BME280;4950;46.042;14.472;2022-08-19T12:49:46;97458.47;;;23.55;77.96
9822;BME280;4950;46.042;14.472;2022-08-19T12:52:13;97463.22;;;23.58;78.65
9822;BME280;4950;46.042;14.472;2022-08-19T12:54:41;97457.13;;;23.53;79.08
9822;BME280;4950;46.042;14.472;2022-08-19T12:57:09;97465.34;;;23.56;79.29
9822;BME280;4950;46.042;14.472;2022-08-19T12:59:38;97454.44;;;23.63;79.59
9822;BME280;4950;46.042;14.472;2022-08-19T13:02:07;97422.38;;;23.75;79.59
9822;BME280;4950;46.042;14.472;2022-08-19T13:04:34;97407.25;;;23.80;79.60
9822;BME280;4950;46.042;14.472;2022-08-19T13:07:06;97384.16;;;23.76;78.87
9822;BME280;4950;46.042;14.472;2022-08-19T13:09:33;97404.03;;;23.89;78.16
9822;BME280;4950;46.042;14.472;2022-08-19T13:12:00;97432.13;;;23.95;79.55
9822;BME280;4950;46.042;14.472;2022-08-19T13:14:27;97449.38;;;23.87;78.85
9822;BME280;4950;46.042;14.472;2022-08-19T13:16:58;97437.50;;;23.69;78.32